createdAt,value
2022-09-28T06:56:34.866Z,2.15
2022-09-28T06:59:01.502Z,2.22
2022-09-28T07:01:28.389Z,3.25
2022-09-28T07:03:55.871Z,3.40
2022-09-28T07:06:24.159Z,4.45
2022-09-28T07:09:04.354Z,2.60
2022-09-28T07:11:39.597Z,2.58
2022-09-28T07:14:06.997Z,1.83
2022-09-28T07:17:01.045Z,6.30
2022-09-28T07:19:20.158Z,1.55
2022-09-28T07:21:54.560Z,4.47
2022-09-28T07:24:26.274Z,1.88
2022-09-28T07:26:52.868Z,2.55
2022-09-28T07:29:19.455Z,4.65
2022-09-28T07:31:46.205Z,2.05
2022-09-28T07:34:13.354Z,1.88
2022-09-28T07:36:40.250Z,2.05
2022-09-28T07:39:06.891Z,2.92
2022-09-28T07:41:33.469Z,2.05
2022-09-28T07:44:06.013Z,2.40
2022-09-28T07:46:33.914Z,3.05
2022-09-28T07:49:00.645Z,1.60
2022-09-28T07:51:27.319Z,5.40
2022-09-28T07:53:56.863Z,4.43
2022-09-28T07:56:23.616Z,5.22
2022-09-28T07:58:50.251Z,4.18
2022-09-28T08:01:17.676Z,1.08
2022-09-28T08:03:48.529Z,1.98
2022-09-28T08:06:17.069Z,2.97
2022-09-28T08:08:44.866Z,3.70
2022-09-28T08:11:13.964Z,1.73
2022-09-28T08:13:41.473Z,6.30
2022-09-28T08:16:08.861Z,2.53
2022-09-28T08:18:36.003Z,3.92
2022-09-28T08:21:36.677Z,2.28
2022-09-28T08:24:03.442Z,4.60
2022-09-28T08:26:30.100Z,5.40
2022-09-28T08:28:56.837Z,2.58
2022-09-28T08:31:23.729Z,2.42
2022-09-28T08:33:53.682Z,0.57
2022-09-28T08:36:23.987Z,3.85
2022-09-28T08:38:50.898Z,3.65
2022-09-28T08:41:23.068Z,1.98
2022-09-28T08:44:11.135Z,1.00
2022-09-28T08:46:44.110Z,10.05
2022-09-28T08:49:25.430Z,0.82
2022-09-28T08:51:57.927Z,4.55
2022-09-28T08:54:33.459Z,2.35
2022-09-28T08:57:18.588Z,1.70
2022-09-28T09:00:11.099Z,2.15
2022-09-28T09:02:39.759Z,0.85
2022-09-28T09:05:14.751Z,1.27
2022-09-28T09:08:05.265Z,3.05
2022-09-28T09:10:50.832Z,0.98
2022-09-28T09:13:32.342Z,1.40
2022-09-28T09:16:15.889Z,1.48
2022-09-28T09:19:06.719Z,1.48
2022-09-28T09:22:03.109Z,1.67
2022-09-28T09:24:51.170Z,1.75
2022-09-28T09:27:21.081Z,0.80
2022-09-28T09:30:17.473Z,0.68
2022-09-28T09:33:07.380Z,1.08
2022-09-28T09:35:54.235Z,1.77
2022-09-28T09:38:27.984Z,1.80
2022-09-28T09:41:22.762Z,0.47
2022-09-28T09:44:17.852Z,2.72
2022-09-28T09:49:27.066Z,2.78
2022-09-28T09:52:20.821Z,0.75
2022-09-28T09:54:56.160Z,3.22
2022-09-28T09:57:32.243Z,0.30
2022-09-28T10:00:01.943Z,0.82
2022-09-28T10:02:35.349Z,0.47
2022-09-28T10:05:07.703Z,0.70
2022-09-28T10:07:49.348Z,0.88
2022-09-28T10:10:28.009Z,0.90
2022-09-28T10:12:55.514Z,0.40
2022-09-28T10:15:31.200Z,3.97
2022-09-28T10:18:10.570Z,0.73
2022-09-28T10:20:43.031Z,4.32
2022-09-28T10:23:17.812Z,1.30
2022-09-28T10:25:47.211Z,4.78
2022-09-28T10:28:21.276Z,1.40
2022-09-28T10:30:48.094Z,2.45
2022-09-28T10:33:33.210Z,1.02
2022-09-28T10:36:01.868Z,0.30
2022-09-28T10:38:30.174Z,0.30
2022-09-28T10:41:11.164Z,0.32
2022-09-28T10:43:50.646Z,0.98
2022-09-28T10:46:23.761Z,3.60
2022-09-28T10:49:04.560Z,1.88
2022-09-28T10:51:46.980Z,1.92
2022-09-28T10:54:16.948Z,0.30
2022-09-28T10:56:44.560Z,1.38
2022-09-28T10:59:29.640Z,1.50
2022-09-28T11:02:22.354Z,0.60
2022-09-28T11:04:56.795Z,0.80
2022-09-28T11:07:26.880Z,4.10
2022-09-28T11:09:55.201Z,1.73
2022-09-28T11:12:24.256Z,3.00
2022-09-28T11:14:59.659Z,2.55
2022-09-28T11:17:32.551Z,0.70
2022-09-28T11:20:02.314Z,1.48
2022-09-28T11:22:52.105Z,1.02
2022-09-28T11:25:24.089Z,0.93
2022-09-28T11:27:53.581Z,1.25
2022-09-28T11:30:27.012Z,0.68
2022-09-28T11:33:06.922Z,0.95
2022-09-28T11:35:56.108Z,2.42
2022-09-28T11:38:22.813Z,2.90
2022-09-28T11:41:24.350Z,1.30
2022-09-28T11:43:57.142Z,0.60
2022-09-28T11:46:39.130Z,1.60
2022-09-28T11:49:27.853Z,1.95
2022-09-28T11:51:59.000Z,0.45
2022-09-28T11:54:33.847Z,1.33
2022-09-28T11:57:04.644Z,2.72
2022-09-28T11:59:37.120Z,0.50
2022-09-28T12:02:15.315Z,1.48
2022-09-28T12:05:19.844Z,0.45
2022-09-28T12:07:55.642Z,0.52
2022-09-28T12:10:30.466Z,1.58
2022-09-28T12:13:03.751Z,2.25
2022-09-28T12:16:17.476Z,0.73
2022-09-28T12:18:43.677Z,1.95
2022-09-28T12:21:45.846Z,0.65
2022-09-28T12:24:23.619Z,0.77
2022-09-28T12:26:58.350Z,1.33
2022-09-28T12:29:31.218Z,0.32
2022-09-28T12:32:00.632Z,1.10
2022-09-28T12:34:27.419Z,1.45
2022-09-28T12:37:11.286Z,1.45
2022-09-28T12:39:58.343Z,2.50
2022-09-28T12:42:35.486Z,2.40
2022-09-28T12:45:27.145Z,0.55
2022-09-28T12:48:15.058Z,0.35
2022-09-28T12:50:59.020Z,2.83
2022-09-28T12:53:56.808Z,1.02
2022-09-28T12:56:45.875Z,0.98
2022-09-28T12:59:22.745Z,2.55
2022-09-28T13:02:36.905Z,2.53
2022-09-28T13:05:28.167Z,2.70
2022-09-28T13:08:00.029Z,2.08
2022-09-28T13:10:34.137Z,4.80
2022-09-28T13:13:18.945Z,5.85
2022-09-28T13:15:53.423Z,3.83
2022-09-28T13:18:39.325Z,2.55
2022-09-28T13:21:18.546Z,2.97
2022-09-28T13:23:47.044Z,7.35
2022-09-28T13:26:20.565Z,3.70
2022-09-28T13:28:50.196Z,2.05
2022-09-28T13:31:25.788Z,4.07
2022-09-28T13:33:57.402Z,3.45
2022-09-28T13:36:32.795Z,3.08
2022-09-28T13:39:00.733Z,3.25
2022-09-28T13:41:34.552Z,2.58
2022-09-28T13:44:13.400Z,2.67
2022-09-28T13:46:52.154Z,3.75
2022-09-28T13:49:25.034Z,2.10
2022-09-28T13:52:13.672Z,3.63
2022-09-28T13:55:08.021Z,2.45
2022-09-28T13:57:43.132Z,2.13
2022-09-28T14:00:19.053Z,1.75
2022-09-28T14:02:56.471Z,2.13
2022-09-28T14:05:23.171Z,1.25
2022-09-28T14:08:14.498Z,1.85
2022-09-28T14:11:17.424Z,2.35
2022-09-28T14:13:44.067Z,0.95
2022-09-28T14:16:27.561Z,7.03
2022-09-28T14:18:57.192Z,9.45
2022-09-28T14:22:01.621Z,1.63
2022-09-28T14:24:55.604Z,3.00
2022-09-28T14:27:37.750Z,5.13
2022-09-28T14:30:13.512Z,2.63
2022-09-28T14:32:43.132Z,3.20
2022-09-28T14:35:43.335Z,2.33
2022-09-28T14:38:36.029Z,1.90
2022-09-28T14:41:40.028Z,2.67
2022-09-28T14:44:18.715Z,1.33
2022-09-28T14:46:48.878Z,2.15
2022-09-28T14:49:19.553Z,1.55
2022-09-28T14:51:55.906Z,3.80
2022-09-28T14:54:26.601Z,1.10
2022-09-28T14:56:53.357Z,1.08
2022-09-28T14:59:25.994Z,0.98
2022-09-28T15:02:10.999Z,2.40
2022-09-28T15:04:43.518Z,1.58
2022-09-28T15:07:23.197Z,0.47
2022-09-28T15:09:52.626Z,0.30
2022-09-28T15:12:24.482Z,1.05
2022-09-28T15:15:08.497Z,2.63
2022-09-28T15:17:40.121Z,0.63
2022-09-28T15:20:22.091Z,4.85
2022-09-28T15:22:51.478Z,1.10
2022-09-28T15:25:24.464Z,2.70
2022-09-28T15:27:54.213Z,0.95
2022-09-28T15:30:32.281Z,3.75
2022-09-28T15:33:19.627Z,1.85
2022-09-28T15:35:50.126Z,1.75
2022-09-28T15:38:17.804Z,0.82
2022-09-28T15:40:45.764Z,0.82
2022-09-28T15:43:32.912Z,1.25
2022-09-28T15:46:16.126Z,0.65
2022-09-28T15:48:55.541Z,1.58
2022-09-28T15:51:24.149Z,1.73
2022-09-28T15:54:18.313Z,3.22
2022-09-28T15:56:59.599Z,0.63
2022-09-28T15:59:31.931Z,1.48
2022-09-28T16:02:19.721Z,0.50
2022-09-28T16:04:54.007Z,1.23
2022-09-28T16:07:41.544Z,0.88
2022-09-28T16:10:14.437Z,1.30
2022-09-28T16:12:49.290Z,1.90
2022-09-28T16:15:21.514Z,0.57
2022-09-28T16:18:02.823Z,0.38
2022-09-28T16:20:35.545Z,0.75
2022-09-28T16:23:16.237Z,0.28
2022-09-28T16:26:16.132Z,0.40
2022-09-28T16:28:45.914Z,2.60
2022-09-28T16:31:12.590Z,0.40
2022-09-28T16:33:56.731Z,0.73
2022-09-28T16:36:27.481Z,0.88
2022-09-28T16:38:54.974Z,0.43
2022-09-28T16:41:26.005Z,0.45
2022-09-28T16:44:02.108Z,0.10
2022-09-28T16:46:34.266Z,0.73
2022-09-28T16:49:03.112Z,2.90
2022-09-28T16:51:29.733Z,0.60
2022-09-28T16:54:28.713Z,1.48
2022-09-28T16:56:55.517Z,4.07
2022-09-28T16:59:22.277Z,1.67
2022-09-28T17:01:49.319Z,2.08
2022-09-28T17:04:15.903Z,1.08
2022-09-28T17:06:43.452Z,3.47
2022-09-28T17:09:12.702Z,4.97
2022-09-28T17:11:39.824Z,3.13
2022-09-28T17:14:06.532Z,1.55
2022-09-28T17:19:24.129Z,1.25
2022-09-28T17:21:52.252Z,3.15
2022-09-28T17:24:20.368Z,2.10
2022-09-28T17:26:49.711Z,3.40
2022-09-28T17:29:16.951Z,5.00
2022-09-28T17:31:44.789Z,6.72
2022-09-28T17:34:13.455Z,9.73
2022-09-28T17:36:42.325Z,9.50
2022-09-28T17:39:14.063Z,10.38
2022-09-28T17:41:41.054Z,15.30
2022-09-28T17:44:08.094Z,14.65
2022-09-28T17:46:37.312Z,13.05
2022-09-28T17:49:06.527Z,11.38
2022-09-28T17:51:37.518Z,13.27
2022-09-28T17:54:06.015Z,11.73
2022-09-28T17:56:32.843Z,9.15
2022-09-28T17:59:03.271Z,11.27
2022-09-28T18:01:33.984Z,9.30
2022-09-28T18:04:05.100Z,7.30
2022-09-28T18:06:33.644Z,11.20
2022-09-28T18:09:02.758Z,7.60
2022-09-28T18:11:30.321Z,8.30
2022-09-28T18:13:57.012Z,8.48
2022-09-28T18:16:24.095Z,6.00
2022-09-28T18:18:50.781Z,7.97
2022-09-28T18:21:17.481Z,7.32
2022-09-28T18:23:44.084Z,5.63
2022-09-28T18:26:15.122Z,6.07
2022-09-28T18:28:42.185Z,5.85
2022-09-28T18:31:10.197Z,7.32
2022-09-28T18:33:50.756Z,5.10
2022-09-28T18:36:17.422Z,5.97
2022-09-28T18:38:44.024Z,4.90
2022-09-28T18:41:15.930Z,4.68
2022-09-28T18:43:49.044Z,4.05
2022-09-28T18:46:18.151Z,4.25
2022-09-28T18:48:44.939Z,4.72
2022-09-28T18:51:12.224Z,6.18
2022-09-28T18:53:40.012Z,5.32
2022-09-28T18:56:09.256Z,4.28
2022-09-28T18:58:37.157Z,4.75
2022-09-28T19:01:31.294Z,7.22
2022-09-28T19:04:00.527Z,6.07
2022-09-28T19:06:27.807Z,7.85
2022-09-28T19:08:58.392Z,9.65
2022-09-28T19:11:26.016Z,9.60
2022-09-28T19:13:54.578Z,10.75
2022-09-28T19:16:25.704Z,9.07
2022-09-28T19:18:53.499Z,8.75
2022-09-28T19:21:20.922Z,8.02
2022-09-28T19:23:49.885Z,8.90
2022-09-28T19:26:23.166Z,8.48
2022-09-28T19:28:50.176Z,8.60
2022-09-28T19:31:17.333Z,5.85
2022-09-28T19:33:46.235Z,9.27
2022-09-28T19:36:16.520Z,6.93
2022-09-28T19:38:43.129Z,5.07
2022-09-28T19:41:35.823Z,7.03
2022-09-28T19:44:06.481Z,6.80
2022-09-28T19:46:34.210Z,8.38
2022-09-28T19:49:02.134Z,7.72
2022-09-28T19:51:28.989Z,9.18
2022-09-28T19:53:55.981Z,6.43
2022-09-28T19:56:23.424Z,5.03
2022-09-28T19:58:50.205Z,6.47
2022-09-28T20:01:17.073Z,4.50
2022-09-28T20:03:43.821Z,10.88
2022-09-28T20:06:13.816Z,4.00
2022-09-28T20:08:44.204Z,4.15
2022-09-28T20:11:11.542Z,4.78
2022-09-28T20:13:38.237Z,7.20
2022-09-28T20:16:05.922Z,5.18
2022-09-28T20:18:37.019Z,5.57
2022-09-28T20:21:05.850Z,7.10
2022-09-28T20:23:33.710Z,4.55
2022-09-28T20:26:00.287Z,3.78
2022-09-28T20:28:26.867Z,6.13
2022-09-28T20:30:53.784Z,7.40
2022-09-28T20:33:28.527Z,9.75
2022-09-28T20:35:55.983Z,5.30
2022-09-28T20:38:23.651Z,7.95
2022-09-28T20:40:50.377Z,5.00
2022-09-28T20:43:17.046Z,3.08
2022-09-28T20:45:43.929Z,4.28
2022-09-28T20:48:10.554Z,6.75
2022-09-28T20:50:37.101Z,3.10
2022-09-28T20:53:03.712Z,4.43
2022-09-28T20:55:30.279Z,5.07
2022-09-28T20:58:01.420Z,5.38
2022-09-28T21:00:27.984Z,6.43
2022-09-28T21:02:54.639Z,4.50
2022-09-28T21:05:21.399Z,3.90
2022-09-28T21:07:48.111Z,5.90
